Tiros, Brazil
Current Conditions -  °F | °C
As of 6:30 AM on Friday 19 Dec 2014 (Local Time) from SBUR Reporting Station
Broken Clouds Broken Clouds  
Wind Chill: 70°   Ceiling: 9000
Heat Index: 70°   Visibility: 6mi
Dew Point: 70°   Wind: 0mph
Humidity: 100%   Direction: NA
Pressure: 29.91"   Gusts: NA
Location:  19°S, 45.96°W
Report Text: SBUR 190830Z 00000KT 9999 FEW005 BKN090 21/21 Q1013
Loading
Personal Weather Stations






























Interactive Weather Map New forecast layout! Learn more

10-Day Weather Forecast

Advertisements
Track Severe Weather on mobile